sensor_id;sensor_type;location;lat;lon;timestamp;P1;durP1;ratioP1;P2;durP2;ratioP2
6185;SDS011;3126;52.738;8.316;2023-02-12T00:03:04;22.23;;;9.98;;
6185;SDS011;3126;52.738;8.316;2023-02-12T00:08:05;21.52;;;10.65;;
6185;SDS011;3126;52.738;8.316;2023-02-12T00:13:06;15.70;;;9.18;;
6185;SDS011;3126;52.738;8.316;2023-02-12T00:18:07;23.75;;;11.65;;
6185;SDS011;3126;52.738;8.316;2023-02-12T00:23:08;20.75;;;8.85;;
6185;SDS011;3126;52.738;8.316;2023-02-12T00:28:10;32.10;;;14.27;;
6185;SDS011;3126;52.738;8.316;2023-02-12T00:33:10;21.52;;;8.23;;
6185;SDS011;3126;52.738;8.316;2023-02-12T00:38:12;14.50;;;7.22;;
6185;SDS011;3126;52.738;8.316;2023-02-12T00:43:13;21.90;;;7.47;;
6185;SDS011;3126;52.738;8.316;2023-02-12T00:48:14;20.45;;;8.32;;
6185;SDS011;3126;52.738;8.316;2023-02-12T00:53:15;18.95;;;7.65;;
6185;SDS011;3126;52.738;8.316;2023-02-12T00:58:16;20.38;;;8.35;;
6185;SDS011;3126;52.738;8.316;2023-02-12T01:03:17;17.13;;;7.63;;
6185;SDS011;3126;52.738;8.316;2023-02-12T01:08:19;17.65;;;8.73;;
6185;SDS011;3126;52.738;8.316;2023-02-12T01:13:19;19.92;;;8.02;;
6185;SDS011;3126;52.738;8.316;2023-02-12T01:18:20;24.20;;;9.75;;
6185;SDS011;3126;52.738;8.316;2023-02-12T01:23:21;23.17;;;8.95;;
6185;SDS011;3126;52.738;8.316;2023-02-12T01:28:22;18.90;;;8.35;;
6185;SDS011;3126;52.738;8.316;2023-02-12T01:33:23;20.05;;;8.52;;
6185;SDS011;3126;52.738;8.316;2023-02-12T01:38:24;26.30;;;8.45;;
6185;SDS011;3126;52.738;8.316;2023-02-12T01:43:25;20.73;;;9.13;;
6185;SDS011;3126;52.738;8.316;2023-02-12T01:48:27;22.00;;;9.30;;
6185;SDS011;3126;52.738;8.316;2023-02-12T01:53:32;19.20;;;7.72;;
6185;SDS011;3126;52.738;8.316;2023-02-12T01:58:36;20.95;;;7.88;;
6185;SDS011;3126;52.738;8.316;2023-02-12T02:03:38;29.40;;;9.63;;
6185;SDS011;3126;52.738;8.316;2023-02-12T02:08:39;20.98;;;7.65;;
6185;SDS011;3126;52.738;8.316;2023-02-12T02:13:41;12.90;;;6.10;;
6185;SDS011;3126;52.738;8.316;2023-02-12T02:19:01;20.48;;;7.95;;
6185;SDS011;3126;52.738;8.316;2023-02-12T02:40:10;22.73;;;8.60;;
6185;SDS011;3126;52.738;8.316;2023-02-12T02:45:14;21.02;;;8.02;;
6185;SDS011;3126;52.738;8.316;2023-02-12T02:50:17;19.95;;;8.43;;
6185;SDS011;3126;52.738;8.316;2023-02-12T02:55:21;24.75;;;8.10;;
6185;SDS011;3126;52.738;8.316;2023-02-12T03:00:30;22.90;;;7.47;;
6185;SDS011;3126;52.738;8.316;2023-02-12T03:05:41;22.58;;;7.78;;
6185;SDS011;3126;52.738;8.316;2023-02-12T03:10:43;22.52;;;8.15;;
6185;SDS011;3126;52.738;8.316;2023-02-12T03:15:50;20.85;;;8.13;;
6185;SDS011;3126;52.738;8.316;2023-02-12T03:20:54;23.85;;;8.60;;
6185;SDS011;3126;52.738;8.316;2023-02-12T03:26:08;28.17;;;9.18;;
6185;SDS011;3126;52.738;8.316;2023-02-12T03:36:27;26.83;;;9.52;;
6185;SDS011;3126;52.738;8.316;2023-02-12T03:41:36;28.80;;;8.73;;
6185;SDS011;3126;52.738;8.316;2023-02-12T03:46:41;26.15;;;8.88;;
6185;SDS011;3126;52.738;8.316;2023-02-12T03:51:46;33.40;;;9.27;;
6185;SDS011;3126;52.738;8.316;2023-02-12T03:56:51;19.92;;;8.85;;
6185;SDS011;3126;52.738;8.316;2023-02-12T04:01:54;31.48;;;9.52;;
6185;SDS011;3126;52.738;8.316;2023-02-12T04:06:55;27.63;;;9.77;;
6185;SDS011;3126;52.738;8.316;2023-02-12T04:22:17;27.90;;;9.73;;
6185;SDS011;3126;52.738;8.316;2023-02-12T04:27:21;29.13;;;10.60;;
6185;SDS011;3126;52.738;8.316;2023-02-12T04:42:30;32.50;;;11.13;;
6185;SDS011;3126;52.738;8.316;2023-02-12T04:47:31;25.85;;;10.75;;
6185;SDS011;3126;52.738;8.316;2023-02-12T04:52:32;26.35;;;12.10;;
6185;SDS011;3126;52.738;8.316;2023-02-12T04:57:33;31.52;;;13.70;;
6185;SDS011;3126;52.738;8.316;2023-02-12T05:02:34;46.83;;;15.70;;
6185;SDS011;3126;52.738;8.316;2023-02-12T05:07:35;37.13;;;13.07;;
6185;SDS011;3126;52.738;8.316;2023-02-12T05:12:36;39.70;;;14.30;;
6185;SDS011;3126;52.738;8.316;2023-02-12T05:17:37;43.15;;;14.55;;
6185;SDS011;3126;52.738;8.316;2023-02-12T05:22:38;41.95;;;14.05;;
6185;SDS011;3126;52.738;8.316;2023-02-12T05:27:39;42.95;;;13.98;;
6185;SDS011;3126;52.738;8.316;2023-02-12T05:32:40;43.15;;;13.95;;
6185;SDS011;3126;52.738;8.316;2023-02-12T05:37:41;42.45;;;14.13;;
6185;SDS011;3126;52.738;8.316;2023-02-12T05:42:42;42.70;;;15.10;;
6185;SDS011;3126;52.738;8.316;2023-02-12T05:47:43;50.28;;;15.35;;
6185;SDS011;3126;52.738;8.316;2023-02-12T05:52:43;50.42;;;14.23;;
6185;SDS011;3126;52.738;8.316;2023-02-12T05:57:44;37.50;;;13.32;;
6185;SDS011;3126;52.738;8.316;2023-02-12T06:02:45;32.17;;;14.00;;
6185;SDS011;3126;52.738;8.316;2023-02-12T06:07:46;36.83;;;15.23;;
6185;SDS011;3126;52.738;8.316;2023-02-12T06:12:51;37.33;;;14.45;;
6185;SDS011;3126;52.738;8.316;2023-02-12T06:17:52;43.95;;;14.10;;
6185;SDS011;3126;52.738;8.316;2023-02-12T06:22:53;34.13;;;13.77;;
6185;SDS011;3126;52.738;8.316;2023-02-12T06:27:54;34.83;;;13.52;;
6185;SDS011;3126;52.738;8.316;2023-02-12T06:32:56;37.88;;;13.02;;
6185;SDS011;3126;52.738;8.316;2023-02-12T06:37:57;39.13;;;14.27;;
6185;SDS011;3126;52.738;8.316;2023-02-12T06:42:58;27.30;;;12.18;;
6185;SDS011;3126;52.738;8.316;2023-02-12T06:47:59;30.45;;;12.27;;
6185;SDS011;3126;52.738;8.316;2023-02-12T06:52:59;34.22;;;12.38;;
6185;SDS011;3126;52.738;8.316;2023-02-12T06:58:00;40.08;;;13.48;;
6185;SDS011;3126;52.738;8.316;2023-02-12T07:03:01;32.78;;;13.88;;
6185;SDS011;3126;52.738;8.316;2023-02-12T07:08:02;30.00;;;12.32;;
6185;SDS011;3126;52.738;8.316;2023-02-12T07:13:04;36.83;;;12.25;;
6185;SDS011;3126;52.738;8.316;2023-02-12T07:18:05;24.05;;;11.20;;
6185;SDS011;3126;52.738;8.316;2023-02-12T07:23:06;28.58;;;12.27;;
6185;SDS011;3126;52.738;8.316;2023-02-12T07:28:10;25.42;;;11.63;;
6185;SDS011;3126;52.738;8.316;2023-02-12T07:33:11;30.73;;;11.93;;
6185;SDS011;3126;52.738;8.316;2023-02-12T07:38:12;21.95;;;11.15;;
6185;SDS011;3126;52.738;8.316;2023-02-12T07:43:13;25.15;;;11.45;;
6185;SDS011;3126;52.738;8.316;2023-02-12T07:48:14;28.17;;;12.77;;
6185;SDS011;3126;52.738;8.316;2023-02-12T07:53:15;26.27;;;10.88;;
6185;SDS011;3126;52.738;8.316;2023-02-12T07:58:16;24.90;;;10.50;;
6185;SDS011;3126;52.738;8.316;2023-02-12T08:03:17;31.92;;;12.77;;
6185;SDS011;3126;52.738;8.316;2023-02-12T08:08:18;23.60;;;11.05;;
6185;SDS011;3126;52.738;8.316;2023-02-12T08:13:18;25.45;;;12.43;;
6185;SDS011;3126;52.738;8.316;2023-02-12T08:18:19;23.17;;;11.27;;
6185;SDS011;3126;52.738;8.316;2023-02-12T08:23:20;27.63;;;11.98;;
6185;SDS011;3126;52.738;8.316;2023-02-12T08:28:21;22.98;;;11.80;;
6185;SDS011;3126;52.738;8.316;2023-02-12T08:33:22;24.23;;;10.65;;
6185;SDS011;3126;52.738;8.316;2023-02-12T08:38:23;26.08;;;12.48;;
6185;SDS011;3126;52.738;8.316;2023-02-12T08:43:24;26.80;;;12.35;;
6185;SDS011;3126;52.738;8.316;2023-02-12T08:48:26;19.95;;;10.80;;
6185;SDS011;3126;52.738;8.316;2023-02-12T08:53:27;26.27;;;12.02;;
6185;SDS011;3126;52.738;8.316;2023-02-12T08:58:28;22.27;;;10.85;;
6185;SDS011;3126;52.738;8.316;2023-02-12T09:03:29;21.40;;;11.32;;
6185;SDS011;3126;52.738;8.316;2023-02-12T09:08:30;18.73;;;10.05;;
6185;SDS011;3126;52.738;8.316;2023-02-12T09:13:31;19.13;;;11.30;;
6185;SDS011;3126;52.738;8.316;2023-02-12T09:18:32;20.73;;;10.95;;
6185;SDS011;3126;52.738;8.316;2023-02-12T09:23:34;20.30;;;9.90;;
6185;SDS011;3126;52.738;8.316;2023-02-12T09:28:36;25.45;;;16.63;;
6185;SDS011;3126;52.738;8.316;2023-02-12T09:33:37;19.48;;;11.48;;
6185;SDS011;3126;52.738;8.316;2023-02-12T09:38:38;22.73;;;12.32;;
6185;SDS011;3126;52.738;8.316;2023-02-12T09:43:43;22.45;;;13.73;;
6185;SDS011;3126;52.738;8.316;2023-02-12T09:53:45;14.20;;;9.05;;
6185;SDS011;3126;52.738;8.316;2023-02-12T09:58:52;17.65;;;10.15;;
6185;SDS011;3126;52.738;8.316;2023-02-12T10:03:53;14.82;;;9.60;;
6185;SDS011;3126;52.738;8.316;2023-02-12T10:29:38;17.20;;;10.18;;
6185;SDS011;3126;52.738;8.316;2023-02-12T10:34:42;17.83;;;10.77;;
6185;SDS011;3126;52.738;8.316;2023-02-12T10:39:46;14.48;;;8.27;;
6185;SDS011;3126;52.738;8.316;2023-02-12T10:44:49;14.38;;;8.65;;
6185;SDS011;3126;52.738;8.316;2023-02-12T10:49:53;15.52;;;9.07;;
6185;SDS011;3126;52.738;8.316;2023-02-12T10:54:55;13.43;;;8.55;;
6185;SDS011;3126;52.738;8.316;2023-02-12T11:00:13;11.95;;;7.30;;
6185;SDS011;3126;52.738;8.316;2023-02-12T11:05:21;15.10;;;9.75;;
6185;SDS011;3126;52.738;8.316;2023-02-12T11:10:30;13.52;;;8.68;;
6185;SDS011;3126;52.738;8.316;2023-02-12T11:15:35;12.00;;;7.72;;
6185;SDS011;3126;52.738;8.316;2023-02-12T11:20:38;11.93;;;7.22;;
6185;SDS011;3126;52.738;8.316;2023-02-12T11:25:40;9.75;;;6.40;;
6185;SDS011;3126;52.738;8.316;2023-02-12T11:36:22;11.02;;;6.82;;
6185;SDS011;3126;52.738;8.316;2023-02-12T11:46:24;13.73;;;6.90;;
6185;SDS011;3126;52.738;8.316;2023-02-12T11:51:28;11.68;;;6.43;;
6185;SDS011;3126;52.738;8.316;2023-02-12T11:56:40;8.38;;;6.53;;
6185;SDS011;3126;52.738;8.316;2023-02-12T12:01:42;11.32;;;5.93;;
6185;SDS011;3126;52.738;8.316;2023-02-12T12:06:44;10.13;;;6.30;;
6185;SDS011;3126;52.738;8.316;2023-02-12T12:11:49;14.18;;;6.88;;
6185;SDS011;3126;52.738;8.316;2023-02-12T12:17:02;13.52;;;7.18;;
6185;SDS011;3126;52.738;8.316;2023-02-12T12:33:05;11.20;;;6.53;;
6185;SDS011;3126;52.738;8.316;2023-02-12T12:44:01;9.18;;;5.30;;
6185;SDS011;3126;52.738;8.316;2023-02-12T12:54:27;9.13;;;5.00;;
6185;SDS011;3126;52.738;8.316;2023-02-12T13:20:13;7.15;;;4.03;;
6185;SDS011;3126;52.738;8.316;2023-02-12T13:30:49;7.70;;;4.45;;
6185;SDS011;3126;52.738;8.316;2023-02-12T13:35:53;8.35;;;5.15;;
6185;SDS011;3126;52.738;8.316;2023-02-12T13:41:00;12.50;;;9.07;;
6185;SDS011;3126;52.738;8.316;2023-02-12T13:46:10;8.93;;;5.72;;
6185;SDS011;3126;52.738;8.316;2023-02-12T13:51:17;11.18;;;8.30;;
6185;SDS011;3126;52.738;8.316;2023-02-12T13:56:26;13.10;;;7.50;;
6185;SDS011;3126;52.738;8.316;2023-02-12T14:06:53;10.85;;;6.05;;
6185;SDS011;3126;52.738;8.316;2023-02-12T14:11:54;9.02;;;5.38;;
6185;SDS011;3126;52.738;8.316;2023-02-12T14:16:56;9.68;;;5.40;;
6185;SDS011;3126;52.738;8.316;2023-02-12T14:21:57;9.63;;;5.50;;
6185;SDS011;3126;52.738;8.316;2023-02-12T14:26:58;10.30;;;5.93;;
6185;SDS011;3126;52.738;8.316;2023-02-12T14:31:59;10.00;;;6.30;;
6185;SDS011;3126;52.738;8.316;2023-02-12T14:37:10;8.27;;;5.75;;
6185;SDS011;3126;52.738;8.316;2023-02-12T14:47:14;12.95;;;6.18;;
6185;SDS011;3126;52.738;8.316;2023-02-12T14:52:21;12.35;;;6.50;;
6185;SDS011;3126;52.738;8.316;2023-02-12T14:57:27;12.75;;;6.72;;
6185;SDS011;3126;52.738;8.316;2023-02-12T15:02:29;13.63;;;6.97;;
6185;SDS011;3126;52.738;8.316;2023-02-12T15:12:34;13.70;;;6.60;;
6185;SDS011;3126;52.738;8.316;2023-02-12T15:17:36;12.23;;;6.72;;
6185;SDS011;3126;52.738;8.316;2023-02-12T15:22:39;12.80;;;6.22;;
6185;SDS011;3126;52.738;8.316;2023-02-12T15:27:43;11.73;;;6.10;;
6185;SDS011;3126;52.738;8.316;2023-02-12T15:32:46;10.00;;;5.63;;
6185;SDS011;3126;52.738;8.316;2023-02-12T15:37:47;10.95;;;5.57;;
6185;SDS011;3126;52.738;8.316;2023-02-12T15:42:58;10.48;;;5.95;;
6185;SDS011;3126;52.738;8.316;2023-02-12T15:53:11;14.13;;;7.88;;
6185;SDS011;3126;52.738;8.316;2023-02-12T15:58:22;24.08;;;11.20;;
6185;SDS011;3126;52.738;8.316;2023-02-12T16:03:28;11.68;;;6.63;;
6185;SDS011;3126;52.738;8.316;2023-02-12T16:08:32;31.77;;;14.98;;
6185;SDS011;3126;52.738;8.316;2023-02-12T16:13:35;41.38;;;18.85;;
6185;SDS011;3126;52.738;8.316;2023-02-12T16:18:36;17.35;;;10.70;;
6185;SDS011;3126;52.738;8.316;2023-02-12T16:23:38;10.70;;;6.55;;
6185;SDS011;3126;52.738;8.316;2023-02-12T16:28:44;13.15;;;7.53;;
6185;SDS011;3126;52.738;8.316;2023-02-12T16:33:46;12.88;;;6.70;;
6185;SDS011;3126;52.738;8.316;2023-02-12T16:48:55;9.52;;;5.68;;
6185;SDS011;3126;52.738;8.316;2023-02-12T16:53:57;9.60;;;5.95;;
6185;SDS011;3126;52.738;8.316;2023-02-12T16:58:58;12.20;;;6.57;;
6185;SDS011;3126;52.738;8.316;2023-02-12T17:04:01;8.15;;;6.10;;
6185;SDS011;3126;52.738;8.316;2023-02-12T17:09:03;12.65;;;6.65;;
6185;SDS011;3126;52.738;8.316;2023-02-12T17:14:04;12.15;;;6.85;;
6185;SDS011;3126;52.738;8.316;2023-02-12T17:19:05;30.38;;;21.48;;
6185;SDS011;3126;52.738;8.316;2023-02-12T17:24:15;25.10;;;20.85;;
6185;SDS011;3126;52.738;8.316;2023-02-12T17:29:17;14.55;;;11.00;;
6185;SDS011;3126;52.738;8.316;2023-02-12T17:34:19;12.82;;;8.30;;
6185;SDS011;3126;52.738;8.316;2023-02-12T17:39:20;9.65;;;6.72;;
6185;SDS011;3126;52.738;8.316;2023-02-12T17:44:21;13.45;;;8.07;;
6185;SDS011;3126;52.738;8.316;2023-02-12T17:49:22;12.75;;;8.65;;
6185;SDS011;3126;52.738;8.316;2023-02-12T17:54:23;16.77;;;9.38;;
6185;SDS011;3126;52.738;8.316;2023-02-12T17:59:23;18.05;;;10.32;;
6185;SDS011;3126;52.738;8.316;2023-02-12T18:04:24;18.02;;;11.13;;
6185;SDS011;3126;52.738;8.316;2023-02-12T18:09:25;18.52;;;11.55;;
6185;SDS011;3126;52.738;8.316;2023-02-12T18:14:26;14.82;;;10.35;;
6185;SDS011;3126;52.738;8.316;2023-02-12T18:19:28;21.85;;;13.90;;
6185;SDS011;3126;52.738;8.316;2023-02-12T18:24:29;67.32;;;28.15;;
6185;SDS011;3126;52.738;8.316;2023-02-12T18:29:33;14.75;;;9.48;;
6185;SDS011;3126;52.738;8.316;2023-02-12T18:34:34;14.88;;;8.88;;
6185;SDS011;3126;52.738;8.316;2023-02-12T18:39:35;14.18;;;9.35;;
6185;SDS011;3126;52.738;8.316;2023-02-12T18:44:36;15.80;;;10.63;;
6185;SDS011;3126;52.738;8.316;2023-02-12T18:49:37;18.30;;;11.07;;
6185;SDS011;3126;52.738;8.316;2023-02-12T18:54:38;17.55;;;10.90;;
6185;SDS011;3126;52.738;8.316;2023-02-12T18:59:39;18.90;;;10.45;;
6185;SDS011;3126;52.738;8.316;2023-02-12T19:04:40;15.75;;;10.25;;
6185;SDS011;3126;52.738;8.316;2023-02-12T19:09:41;14.68;;;8.80;;
6185;SDS011;3126;52.738;8.316;2023-02-12T19:14:42;16.55;;;10.18;;
6185;SDS011;3126;52.738;8.316;2023-02-12T19:19:43;16.90;;;10.15;;
6185;SDS011;3126;52.738;8.316;2023-02-12T19:24:44;15.23;;;10.13;;
6185;SDS011;3126;52.738;8.316;2023-02-12T19:29:45;19.75;;;12.20;;
6185;SDS011;3126;52.738;8.316;2023-02-12T19:34:46;17.27;;;11.55;;
6185;SDS011;3126;52.738;8.316;2023-02-12T19:39:47;26.67;;;16.58;;
6185;SDS011;3126;52.738;8.316;2023-02-12T19:44:48;22.73;;;16.92;;
6185;SDS011;3126;52.738;8.316;2023-02-12T19:49:49;18.02;;;11.18;;
6185;SDS011;3126;52.738;8.316;2023-02-12T19:54:50;18.52;;;12.73;;
6185;SDS011;3126;52.738;8.316;2023-02-12T19:59:51;20.98;;;15.95;;
6185;SDS011;3126;52.738;8.316;2023-02-12T20:04:52;25.50;;;16.05;;
6185;SDS011;3126;52.738;8.316;2023-02-12T20:09:53;23.83;;;15.27;;
6185;SDS011;3126;52.738;8.316;2023-02-12T20:14:54;25.60;;;16.00;;
6185;SDS011;3126;52.738;8.316;2023-02-12T20:19:55;25.40;;;17.55;;
6185;SDS011;3126;52.738;8.316;2023-02-12T20:24:56;24.65;;;16.08;;
6185;SDS011;3126;52.738;8.316;2023-02-12T20:29:57;26.15;;;16.85;;
6185;SDS011;3126;52.738;8.316;2023-02-12T20:34:58;28.50;;;18.40;;
6185;SDS011;3126;52.738;8.316;2023-02-12T20:39:59;23.65;;;17.42;;
6185;SDS011;3126;52.738;8.316;2023-02-12T20:45:00;22.48;;;16.13;;
6185;SDS011;3126;52.738;8.316;2023-02-12T20:50:01;23.27;;;15.45;;
6185;SDS011;3126;52.738;8.316;2023-02-12T20:55:02;20.05;;;13.77;;
6185;SDS011;3126;52.738;8.316;2023-02-12T21:00:03;20.55;;;13.85;;
6185;SDS011;3126;52.738;8.316;2023-02-12T21:05:05;21.38;;;12.98;;
6185;SDS011;3126;52.738;8.316;2023-02-12T21:10:06;17.35;;;12.05;;
6185;SDS011;3126;52.738;8.316;2023-02-12T21:15:07;18.63;;;11.13;;
6185;SDS011;3126;52.738;8.316;2023-02-12T21:20:08;18.27;;;11.25;;
6185;SDS011;3126;52.738;8.316;2023-02-12T21:25:09;18.52;;;9.82;;
6185;SDS011;3126;52.738;8.316;2023-02-12T21:30:10;15.40;;;9.73;;
6185;SDS011;3126;52.738;8.316;2023-02-12T21:35:11;16.27;;;11.93;;
6185;SDS011;3126;52.738;8.316;2023-02-12T21:40:12;16.67;;;9.43;;
6185;SDS011;3126;52.738;8.316;2023-02-12T21:45:13;15.90;;;10.13;;
6185;SDS011;3126;52.738;8.316;2023-02-12T21:50:14;13.82;;;9.43;;
6185;SDS011;3126;52.738;8.316;2023-02-12T21:55:16;15.57;;;10.07;;
6185;SDS011;3126;52.738;8.316;2023-02-12T22:00:17;16.73;;;9.68;;
6185;SDS011;3126;52.738;8.316;2023-02-12T22:05:18;18.70;;;10.70;;
6185;SDS011;3126;52.738;8.316;2023-02-12T22:10:19;17.75;;;10.77;;
6185;SDS011;3126;52.738;8.316;2023-02-12T22:15:20;18.52;;;10.73;;
6185;SDS011;3126;52.738;8.316;2023-02-12T22:20:21;20.52;;;11.60;;
6185;SDS011;3126;52.738;8.316;2023-02-12T22:25:22;19.90;;;12.43;;
6185;SDS011;3126;52.738;8.316;2023-02-12T22:30:23;25.08;;;15.93;;
6185;SDS011;3126;52.738;8.316;2023-02-12T22:35:24;16.20;;;11.60;;
6185;SDS011;3126;52.738;8.316;2023-02-12T22:40:25;19.17;;;12.00;;
6185;SDS011;3126;52.738;8.316;2023-02-12T22:45:26;19.85;;;11.63;;
6185;SDS011;3126;52.738;8.316;2023-02-12T22:50:27;20.77;;;12.75;;
6185;SDS011;3126;52.738;8.316;2023-02-12T22:55:28;17.90;;;12.07;;
6185;SDS011;3126;52.738;8.316;2023-02-12T23:00:29;16.63;;;12.07;;
6185;SDS011;3126;52.738;8.316;2023-02-12T23:05:30;19.52;;;12.63;;
6185;SDS011;3126;52.738;8.316;2023-02-12T23:15:35;17.92;;;11.18;;
6185;SDS011;3126;52.738;8.316;2023-02-12T23:20:36;18.38;;;10.85;;
6185;SDS011;3126;52.738;8.316;2023-02-12T23:25:37;19.65;;;11.23;;
6185;SDS011;3126;52.738;8.316;2023-02-12T23:30:38;17.08;;;10.50;;
6185;SDS011;3126;52.738;8.316;2023-02-12T23:35:39;17.65;;;10.00;;
6185;SDS011;3126;52.738;8.316;2023-02-12T23:40:40;15.82;;;9.43;;
6185;SDS011;3126;52.738;8.316;2023-02-12T23:45:42;14.77;;;9.25;;
6185;SDS011;3126;52.738;8.316;2023-02-12T23:50:44;15.00;;;8.95;;
6185;SDS011;3126;52.738;8.316;2023-02-12T23:55:47;16.50;;;9.80;;
